sensor_id;sensor_type;location;lat;lon;timestamp;P1;durP1;ratioP1;P2;durP2;ratioP2
61471;SDS011;47337;54.068;12.114;2022-08-03T00:01:54;3.97;;;1.90;;
61471;SDS011;47337;54.068;12.114;2022-08-03T00:04:19;3.47;;;1.70;;
61471;SDS011;47337;54.068;12.114;2022-08-03T00:06:47;4.47;;;1.55;;
61471;SDS011;47337;54.068;12.114;2022-08-03T00:09:14;6.80;;;1.92;;
61471;SDS011;47337;54.068;12.114;2022-08-03T00:11:40;4.38;;;1.90;;
61471;SDS011;47337;54.068;12.114;2022-08-03T00:14:05;4.55;;;1.58;;
61471;SDS011;47337;54.068;12.114;2022-08-03T00:16:31;3.78;;;1.80;;
61471;SDS011;47337;54.068;12.114;2022-08-03T00:18:56;4.25;;;2.22;;
61471;SDS011;47337;54.068;12.114;2022-08-03T00:21:22;6.53;;;2.20;;
61471;SDS011;47337;54.068;12.114;2022-08-03T00:23:47;3.80;;;1.85;;
61471;SDS011;47337;54.068;12.114;2022-08-03T00:26:13;5.63;;;1.85;;
61471;SDS011;47337;54.068;12.114;2022-08-03T00:28:38;5.13;;;2.08;;
61471;SDS011;47337;54.068;12.114;2022-08-03T00:31:03;5.18;;;2.10;;
61471;SDS011;47337;54.068;12.114;2022-08-03T00:33:32;7.10;;;2.13;;
61471;SDS011;47337;54.068;12.114;2022-08-03T00:35:57;4.65;;;1.73;;
61471;SDS011;47337;54.068;12.114;2022-08-03T00:38:22;3.78;;;1.77;;
61471;SDS011;47337;54.068;12.114;2022-08-03T00:40:48;4.88;;;1.85;;
61471;SDS011;47337;54.068;12.114;2022-08-03T00:43:13;3.03;;;1.73;;
61471;SDS011;47337;54.068;12.114;2022-08-03T00:45:39;5.95;;;1.80;;
61471;SDS011;47337;54.068;12.114;2022-08-03T00:48:06;4.38;;;2.13;;
61471;SDS011;47337;54.068;12.114;2022-08-03T00:50:33;4.55;;;1.60;;
61471;SDS011;47337;54.068;12.114;2022-08-03T00:53:03;6.15;;;1.98;;
61471;SDS011;47337;54.068;12.114;2022-08-03T00:55:30;6.05;;;2.42;;
61471;SDS011;47337;54.068;12.114;2022-08-03T00:57:55;4.70;;;1.85;;
61471;SDS011;47337;54.068;12.114;2022-08-03T01:00:24;4.13;;;1.88;;
61471;SDS011;47337;54.068;12.114;2022-08-03T01:02:50;6.97;;;1.83;;
61471;SDS011;47337;54.068;12.114;2022-08-03T01:05:16;5.40;;;2.00;;
61471;SDS011;47337;54.068;12.114;2022-08-03T01:13:06;5.38;;;2.17;;
61471;SDS011;47337;54.068;12.114;2022-08-03T01:18:17;5.65;;;2.40;;
61471;SDS011;47337;54.068;12.114;2022-08-03T01:20:50;3.70;;;1.90;;
61471;SDS011;47337;54.068;12.114;2022-08-03T01:31:31;5.07;;;2.10;;
61471;SDS011;47337;54.068;12.114;2022-08-03T01:34:02;2.42;;;1.98;;
61471;SDS011;47337;54.068;12.114;2022-08-03T01:36:50;4.18;;;1.95;;
61471;SDS011;47337;54.068;12.114;2022-08-03T01:39:18;2.65;;;1.90;;
61471;SDS011;47337;54.068;12.114;2022-08-03T01:41:58;5.18;;;2.10;;
61471;SDS011;47337;54.068;12.114;2022-08-03T01:44:30;7.22;;;2.47;;
61471;SDS011;47337;54.068;12.114;2022-08-03T01:47:00;4.80;;;1.80;;
61471;SDS011;47337;54.068;12.114;2022-08-03T01:49:27;5.40;;;2.10;;
61471;SDS011;47337;54.068;12.114;2022-08-03T01:51:56;7.15;;;2.40;;
61471;SDS011;47337;54.068;12.114;2022-08-03T01:54:24;3.40;;;2.30;;
61471;SDS011;47337;54.068;12.114;2022-08-03T01:56:51;6.28;;;1.90;;
61471;SDS011;47337;54.068;12.114;2022-08-03T01:59:20;2.40;;;2.17;;
61471;SDS011;47337;54.068;12.114;2022-08-03T02:01:47;4.00;;;2.05;;
61471;SDS011;47337;54.068;12.114;2022-08-03T02:04:16;4.03;;;1.95;;
61471;SDS011;47337;54.068;12.114;2022-08-03T02:06:46;4.68;;;2.10;;
61471;SDS011;47337;54.068;12.114;2022-08-03T02:09:13;5.45;;;2.28;;
61471;SDS011;47337;54.068;12.114;2022-08-03T02:11:42;8.75;;;2.55;;
61471;SDS011;47337;54.068;12.114;2022-08-03T02:14:09;3.72;;;2.40;;
61471;SDS011;47337;54.068;12.114;2022-08-03T02:16:38;4.28;;;2.20;;
61471;SDS011;47337;54.068;12.114;2022-08-03T02:19:07;5.40;;;2.38;;
61471;SDS011;47337;54.068;12.114;2022-08-03T02:21:35;9.45;;;3.45;;
61471;SDS011;47337;54.068;12.114;2022-08-03T02:24:01;4.90;;;2.45;;
61471;SDS011;47337;54.068;12.114;2022-08-03T02:26:28;4.53;;;2.42;;
61471;SDS011;47337;54.068;12.114;2022-08-03T02:29:01;7.45;;;2.60;;
61471;SDS011;47337;54.068;12.114;2022-08-03T02:31:29;7.88;;;2.40;;
61471;SDS011;47337;54.068;12.114;2022-08-03T02:33:59;6.40;;;2.30;;
61471;SDS011;47337;54.068;12.114;2022-08-03T02:36:30;6.77;;;2.40;;
61471;SDS011;47337;54.068;12.114;2022-08-03T02:39:02;5.85;;;2.38;;
61471;SDS011;47337;54.068;12.114;2022-08-03T02:41:48;5.15;;;2.45;;
61471;SDS011;47337;54.068;12.114;2022-08-03T02:44:16;6.47;;;3.08;;
61471;SDS011;47337;54.068;12.114;2022-08-03T02:46:52;5.57;;;3.00;;
61471;SDS011;47337;54.068;12.114;2022-08-03T02:49:21;7.40;;;2.80;;
61471;SDS011;47337;54.068;12.114;2022-08-03T02:51:49;4.35;;;2.60;;
61471;SDS011;47337;54.068;12.114;2022-08-03T02:54:17;5.07;;;2.80;;
61471;SDS011;47337;54.068;12.114;2022-08-03T02:56:45;5.80;;;2.90;;
61471;SDS011;47337;54.068;12.114;2022-08-03T02:59:12;8.27;;;3.28;;
61471;SDS011;47337;54.068;12.114;2022-08-03T03:01:38;5.07;;;2.90;;
61471;SDS011;47337;54.068;12.114;2022-08-03T03:04:04;7.40;;;3.45;;
61471;SDS011;47337;54.068;12.114;2022-08-03T03:06:31;10.25;;;3.38;;
61471;SDS011;47337;54.068;12.114;2022-08-03T03:08:57;6.57;;;3.03;;
61471;SDS011;47337;54.068;12.114;2022-08-03T03:11:24;5.65;;;2.75;;
61471;SDS011;47337;54.068;12.114;2022-08-03T03:13:53;3.15;;;2.67;;
61471;SDS011;47337;54.068;12.114;2022-08-03T03:16:21;3.72;;;2.65;;
61471;SDS011;47337;54.068;12.114;2022-08-03T03:18:47;6.55;;;2.80;;
61471;SDS011;47337;54.068;12.114;2022-08-03T03:21:15;5.35;;;3.05;;
61471;SDS011;47337;54.068;12.114;2022-08-03T03:23:43;15.70;;;3.58;;
61471;SDS011;47337;54.068;12.114;2022-08-03T03:26:10;3.70;;;2.80;;
61471;SDS011;47337;54.068;12.114;2022-08-03T03:28:40;8.73;;;2.92;;
61471;SDS011;47337;54.068;12.114;2022-08-03T03:31:08;4.18;;;2.67;;
61471;SDS011;47337;54.068;12.114;2022-08-03T03:33:35;6.35;;;2.85;;
61471;SDS011;47337;54.068;12.114;2022-08-03T03:36:04;5.50;;;3.13;;
61471;SDS011;47337;54.068;12.114;2022-08-03T03:38:30;10.82;;;3.50;;
61471;SDS011;47337;54.068;12.114;2022-08-03T03:40:56;6.88;;;3.05;;
61471;SDS011;47337;54.068;12.114;2022-08-03T03:43:22;7.35;;;3.63;;
61471;SDS011;47337;54.068;12.114;2022-08-03T03:45:48;6.38;;;3.15;;
61471;SDS011;47337;54.068;12.114;2022-08-03T03:48:17;8.60;;;3.80;;
61471;SDS011;47337;54.068;12.114;2022-08-03T03:50:45;4.22;;;3.38;;
61471;SDS011;47337;54.068;12.114;2022-08-03T03:53:15;6.47;;;3.95;;
61471;SDS011;47337;54.068;12.114;2022-08-03T03:55:42;3.47;;;2.88;;
61471;SDS011;47337;54.068;12.114;2022-08-03T03:58:08;5.82;;;3.40;;
61471;SDS011;47337;54.068;12.114;2022-08-03T04:00:33;4.47;;;3.40;;
61471;SDS011;47337;54.068;12.114;2022-08-03T04:02:59;4.75;;;3.38;;
61471;SDS011;47337;54.068;12.114;2022-08-03T04:05:25;3.40;;;3.10;;
61471;SDS011;47337;54.068;12.114;2022-08-03T04:08:10;5.43;;;3.28;;
61471;SDS011;47337;54.068;12.114;2022-08-03T04:16:32;3.92;;;3.22;;
61471;SDS011;47337;54.068;12.114;2022-08-03T04:19:03;6.30;;;3.80;;
61471;SDS011;47337;54.068;12.114;2022-08-03T04:21:33;5.47;;;3.17;;
61471;SDS011;47337;54.068;12.114;2022-08-03T04:24:05;4.13;;;3.45;;
61471;SDS011;47337;54.068;12.114;2022-08-03T04:26:35;5.53;;;3.13;;
61471;SDS011;47337;54.068;12.114;2022-08-03T04:29:05;4.35;;;3.25;;
61471;SDS011;47337;54.068;12.114;2022-08-03T04:31:31;5.80;;;2.90;;
61471;SDS011;47337;54.068;12.114;2022-08-03T04:33:56;4.65;;;3.03;;
61471;SDS011;47337;54.068;12.114;2022-08-03T04:36:25;5.70;;;3.35;;
61471;SDS011;47337;54.068;12.114;2022-08-03T04:41:48;3.75;;;2.80;;
61471;SDS011;47337;54.068;12.114;2022-08-03T04:44:16;5.57;;;2.63;;
61471;SDS011;47337;54.068;12.114;2022-08-03T04:46:45;5.07;;;3.35;;
61471;SDS011;47337;54.068;12.114;2022-08-03T04:49:11;4.43;;;2.72;;
61471;SDS011;47337;54.068;12.114;2022-08-03T04:51:37;8.73;;;3.60;;
61471;SDS011;47337;54.068;12.114;2022-08-03T04:54:04;3.67;;;3.17;;
61471;SDS011;47337;54.068;12.114;2022-08-03T04:56:31;6.88;;;3.10;;
61471;SDS011;47337;54.068;12.114;2022-08-03T04:58:58;5.35;;;3.75;;
61471;SDS011;47337;54.068;12.114;2022-08-03T05:01:23;6.07;;;3.20;;
61471;SDS011;47337;54.068;12.114;2022-08-03T05:03:51;4.53;;;3.30;;
61471;SDS011;47337;54.068;12.114;2022-08-03T05:06:19;3.78;;;2.80;;
61471;SDS011;47337;54.068;12.114;2022-08-03T05:08:45;3.38;;;3.00;;
61471;SDS011;47337;54.068;12.114;2022-08-03T05:11:10;3.85;;;2.95;;
61471;SDS011;47337;54.068;12.114;2022-08-03T05:13:35;5.97;;;3.20;;
61471;SDS011;47337;54.068;12.114;2022-08-03T05:16:04;5.18;;;3.17;;
61471;SDS011;47337;54.068;12.114;2022-08-03T05:18:29;3.42;;;3.05;;
61471;SDS011;47337;54.068;12.114;2022-08-03T05:20:56;3.75;;;3.30;;
61471;SDS011;47337;54.068;12.114;2022-08-03T05:23:21;3.55;;;3.00;;
61471;SDS011;47337;54.068;12.114;2022-08-03T05:25:47;4.18;;;2.80;;
61471;SDS011;47337;54.068;12.114;2022-08-03T05:28:12;5.38;;;2.90;;
61471;SDS011;47337;54.068;12.114;2022-08-03T05:30:40;5.95;;;3.33;;
61471;SDS011;47337;54.068;12.114;2022-08-03T05:33:05;3.70;;;2.83;;
61471;SDS011;47337;54.068;12.114;2022-08-03T05:35:31;4.32;;;2.83;;
61471;SDS011;47337;54.068;12.114;2022-08-03T05:37:59;5.03;;;2.78;;
61471;SDS011;47337;54.068;12.114;2022-08-03T05:40:25;4.30;;;2.75;;
61471;SDS011;47337;54.068;12.114;2022-08-03T05:42:50;4.15;;;2.50;;
61471;SDS011;47337;54.068;12.114;2022-08-03T05:45:15;3.83;;;2.53;;
61471;SDS011;47337;54.068;12.114;2022-08-03T05:47:44;3.80;;;2.45;;
61471;SDS011;47337;54.068;12.114;2022-08-03T05:50:10;3.05;;;2.63;;
61471;SDS011;47337;54.068;12.114;2022-08-03T05:52:36;3.00;;;2.70;;
61471;SDS011;47337;54.068;12.114;2022-08-03T05:55:03;4.32;;;2.67;;
61471;SDS011;47337;54.068;12.114;2022-08-03T05:57:32;5.28;;;2.55;;
61471;SDS011;47337;54.068;12.114;2022-08-03T05:59:57;4.10;;;2.53;;
61471;SDS011;47337;54.068;12.114;2022-08-03T06:02:23;3.80;;;2.35;;
61471;SDS011;47337;54.068;12.114;2022-08-03T06:04:49;3.65;;;2.50;;
61471;SDS011;47337;54.068;12.114;2022-08-03T06:07:14;7.35;;;2.38;;
61471;SDS011;47337;54.068;12.114;2022-08-03T06:09:40;4.35;;;2.08;;
61471;SDS011;47337;54.068;12.114;2022-08-03T06:12:06;5.13;;;2.60;;
61471;SDS011;47337;54.068;12.114;2022-08-03T06:14:31;5.93;;;2.80;;
61471;SDS011;47337;54.068;12.114;2022-08-03T06:16:59;3.55;;;2.65;;
61471;SDS011;47337;54.068;12.114;2022-08-03T06:19:25;3.17;;;2.33;;
61471;SDS011;47337;54.068;12.114;2022-08-03T06:21:51;2.35;;;2.15;;
61471;SDS011;47337;54.068;12.114;2022-08-03T06:24:17;3.65;;;2.28;;
61471;SDS011;47337;54.068;12.114;2022-08-03T06:26:42;2.90;;;2.60;;
61471;SDS011;47337;54.068;12.114;2022-08-03T06:29:07;2.83;;;2.50;;
61471;SDS011;47337;54.068;12.114;2022-08-03T06:31:33;3.28;;;2.33;;
61471;SDS011;47337;54.068;12.114;2022-08-03T06:33:58;4.68;;;2.03;;
61471;SDS011;47337;54.068;12.114;2022-08-03T06:36:24;3.17;;;2.42;;
61471;SDS011;47337;54.068;12.114;2022-08-03T06:38:55;3.55;;;2.10;;
61471;SDS011;47337;54.068;12.114;2022-08-03T06:41:21;7.88;;;2.33;;
61471;SDS011;47337;54.068;12.114;2022-08-03T06:43:46;5.55;;;2.40;;
61471;SDS011;47337;54.068;12.114;2022-08-03T06:46:14;3.03;;;2.33;;
61471;SDS011;47337;54.068;12.114;2022-08-03T06:48:40;2.83;;;2.40;;
61471;SDS011;47337;54.068;12.114;2022-08-03T06:51:05;5.82;;;2.45;;
61471;SDS011;47337;54.068;12.114;2022-08-03T06:53:31;3.30;;;2.58;;
61471;SDS011;47337;54.068;12.114;2022-08-03T06:56:02;3.38;;;2.20;;
61471;SDS011;47337;54.068;12.114;2022-08-03T06:58:33;4.80;;;2.40;;
61471;SDS011;47337;54.068;12.114;2022-08-03T07:00:59;4.53;;;2.80;;
61471;SDS011;47337;54.068;12.114;2022-08-03T07:03:26;5.20;;;2.20;;
61471;SDS011;47337;54.068;12.114;2022-08-03T07:05:52;2.47;;;2.10;;
61471;SDS011;47337;54.068;12.114;2022-08-03T07:08:17;3.50;;;2.10;;
61471;SDS011;47337;54.068;12.114;2022-08-03T07:10:43;5.20;;;2.40;;
61471;SDS011;47337;54.068;12.114;2022-08-03T07:13:09;4.20;;;2.50;;
61471;SDS011;47337;54.068;12.114;2022-08-03T07:15:35;2.83;;;2.25;;
61471;SDS011;47337;54.068;12.114;2022-08-03T07:18:01;7.00;;;2.50;;
61471;SDS011;47337;54.068;12.114;2022-08-03T07:20:26;3.30;;;2.22;;
61471;SDS011;47337;54.068;12.114;2022-08-03T07:22:52;5.13;;;2.38;;
61471;SDS011;47337;54.068;12.114;2022-08-03T07:25:17;3.47;;;2.92;;
61471;SDS011;47337;54.068;12.114;2022-08-03T07:27:48;5.38;;;2.53;;
61471;SDS011;47337;54.068;12.114;2022-08-03T07:30:14;4.47;;;2.25;;
61471;SDS011;47337;54.068;12.114;2022-08-03T07:32:42;3.83;;;2.53;;
61471;SDS011;47337;54.068;12.114;2022-08-03T07:35:08;3.22;;;2.60;;
61471;SDS011;47337;54.068;12.114;2022-08-03T07:37:35;5.55;;;2.97;;
61471;SDS011;47337;54.068;12.114;2022-08-03T07:40:01;4.35;;;2.63;;
61471;SDS011;47337;54.068;12.114;2022-08-03T07:42:28;4.93;;;2.40;;
61471;SDS011;47337;54.068;12.114;2022-08-03T07:44:54;2.88;;;2.60;;
61471;SDS011;47337;54.068;12.114;2022-08-03T07:47:22;3.08;;;2.20;;
61471;SDS011;47337;54.068;12.114;2022-08-03T07:49:49;12.73;;;3.13;;
61471;SDS011;47337;54.068;12.114;2022-08-03T07:52:15;2.63;;;2.30;;
61471;SDS011;47337;54.068;12.114;2022-08-03T07:54:59;2.50;;;2.22;;
61471;SDS011;47337;54.068;12.114;2022-08-03T07:57:25;5.53;;;2.53;;
61471;SDS011;47337;54.068;12.114;2022-08-03T07:59:50;3.40;;;2.53;;
61471;SDS011;47337;54.068;12.114;2022-08-03T08:02:15;4.45;;;2.58;;
61471;SDS011;47337;54.068;12.114;2022-08-03T08:04:41;3.85;;;2.67;;
61471;SDS011;47337;54.068;12.114;2022-08-03T08:07:09;2.80;;;2.40;;
61471;SDS011;47337;54.068;12.114;2022-08-03T08:09:36;5.53;;;2.65;;
61471;SDS011;47337;54.068;12.114;2022-08-03T08:12:02;5.75;;;2.92;;
61471;SDS011;47337;54.068;12.114;2022-08-03T08:14:28;4.35;;;3.30;;
61471;SDS011;47337;54.068;12.114;2022-08-03T08:16:54;2.70;;;2.40;;
61471;SDS011;47337;54.068;12.114;2022-08-03T08:19:19;5.65;;;2.70;;
61471;SDS011;47337;54.068;12.114;2022-08-03T08:21:45;4.45;;;2.30;;
61471;SDS011;47337;54.068;12.114;2022-08-03T08:24:10;2.80;;;2.53;;
61471;SDS011;47337;54.068;12.114;2022-08-03T08:26:35;4.10;;;2.53;;
61471;SDS011;47337;54.068;12.114;2022-08-03T08:29:01;2.50;;;2.10;;
61471;SDS011;47337;54.068;12.114;2022-08-03T08:31:27;5.07;;;2.70;;
61471;SDS011;47337;54.068;12.114;2022-08-03T08:33:53;4.65;;;2.67;;
61471;SDS011;47337;54.068;12.114;2022-08-03T08:36:18;3.03;;;2.40;;
61471;SDS011;47337;54.068;12.114;2022-08-03T08:38:44;3.08;;;2.60;;
61471;SDS011;47337;54.068;12.114;2022-08-03T08:41:09;2.65;;;2.17;;
61471;SDS011;47337;54.068;12.114;2022-08-03T08:43:39;6.18;;;2.72;;
61471;SDS011;47337;54.068;12.114;2022-08-03T08:46:06;2.88;;;2.35;;
61471;SDS011;47337;54.068;12.114;2022-08-03T08:48:32;5.22;;;2.50;;
61471;SDS011;47337;54.068;12.114;2022-08-03T08:51:00;5.32;;;2.50;;
61471;SDS011;47337;54.068;12.114;2022-08-03T08:53:27;2.60;;;1.92;;
61471;SDS011;47337;54.068;12.114;2022-08-03T08:55:54;5.78;;;1.92;;
61471;SDS011;47337;54.068;12.114;2022-08-03T08:58:24;3.50;;;2.28;;
61471;SDS011;47337;54.068;12.114;2022-08-03T09:00:52;4.55;;;2.80;;
61471;SDS011;47337;54.068;12.114;2022-08-03T09:03:17;4.40;;;3.00;;
61471;SDS011;47337;54.068;12.114;2022-08-03T09:05:43;6.25;;;2.58;;
61471;SDS011;47337;54.068;12.114;2022-08-03T09:08:11;3.13;;;2.05;;
61471;SDS011;47337;54.068;12.114;2022-08-03T09:10:37;4.88;;;2.75;;
61471;SDS011;47337;54.068;12.114;2022-08-03T09:13:05;8.23;;;3.58;;
61471;SDS011;47337;54.068;12.114;2022-08-03T09:15:35;6.80;;;2.10;;
61471;SDS011;47337;54.068;12.114;2022-08-03T09:18:02;5.13;;;2.42;;
61471;SDS011;47337;54.068;12.114;2022-08-03T09:20:29;5.65;;;2.35;;
61471;SDS011;47337;54.068;12.114;2022-08-03T09:25:30;3.72;;;2.28;;
61471;SDS011;47337;54.068;12.114;2022-08-03T09:28:10;4.45;;;2.75;;
61471;SDS011;47337;54.068;12.114;2022-08-03T09:30:37;6.25;;;2.30;;
61471;SDS011;47337;54.068;12.114;2022-08-03T09:33:06;4.65;;;2.55;;
61471;SDS011;47337;54.068;12.114;2022-08-03T09:35:42;5.95;;;2.10;;
61471;SDS011;47337;54.068;12.114;2022-08-03T09:38:16;4.63;;;1.80;;
61471;SDS011;47337;54.068;12.114;2022-08-03T09:40:48;4.00;;;1.67;;
61471;SDS011;47337;54.068;12.114;2022-08-03T09:43:13;5.97;;;1.90;;
61471;SDS011;47337;54.068;12.114;2022-08-03T09:45:39;7.55;;;2.45;;
61471;SDS011;47337;54.068;12.114;2022-08-03T09:50:57;2.78;;;1.50;;
61471;SDS011;47337;54.068;12.114;2022-08-03T09:53:24;5.78;;;2.08;;
61471;SDS011;47337;54.068;12.114;2022-08-03T09:55:59;4.07;;;1.73;;
61471;SDS011;47337;54.068;12.114;2022-08-03T09:58:27;2.17;;;1.13;;
61471;SDS011;47337;54.068;12.114;2022-08-03T10:01:04;2.65;;;1.27;;
61471;SDS011;47337;54.068;12.114;2022-08-03T10:03:31;4.03;;;1.80;;
61471;SDS011;47337;54.068;12.114;2022-08-03T10:05:59;4.32;;;1.67;;
61471;SDS011;47337;54.068;12.114;2022-08-03T10:08:42;2.40;;;1.60;;
61471;SDS011;47337;54.068;12.114;2022-08-03T10:11:07;3.00;;;1.38;;
61471;SDS011;47337;54.068;12.114;2022-08-03T10:13:32;2.20;;;1.50;;
61471;SDS011;47337;54.068;12.114;2022-08-03T10:15:58;6.53;;;1.73;;
61471;SDS011;47337;54.068;12.114;2022-08-03T10:18:23;2.47;;;1.67;;
61471;SDS011;47337;54.068;12.114;2022-08-03T10:20:52;9.50;;;2.17;;
61471;SDS011;47337;54.068;12.114;2022-08-03T10:23:22;3.60;;;2.15;;
61471;SDS011;47337;54.068;12.114;2022-08-03T10:25:51;4.13;;;1.60;;
61471;SDS011;47337;54.068;12.114;2022-08-03T10:28:21;4.90;;;1.65;;
61471;SDS011;47337;54.068;12.114;2022-08-03T10:30:52;4.90;;;1.80;;
61471;SDS011;47337;54.068;12.114;2022-08-03T10:33:20;4.60;;;1.42;;
61471;SDS011;47337;54.068;12.114;2022-08-03T10:35:51;4.83;;;1.40;;
61471;SDS011;47337;54.068;12.114;2022-08-03T10:38:20;2.60;;;1.40;;
61471;SDS011;47337;54.068;12.114;2022-08-03T10:40:49;3.90;;;1.80;;
61471;SDS011;47337;54.068;12.114;2022-08-03T10:43:19;7.63;;;1.75;;
61471;SDS011;47337;54.068;12.114;2022-08-03T10:45:48;3.95;;;1.40;;
61471;SDS011;47337;54.068;12.114;2022-08-03T10:48:14;5.80;;;1.92;;
61471;SDS011;47337;54.068;12.114;2022-08-03T10:50:41;1.77;;;1.48;;
61471;SDS011;47337;54.068;12.114;2022-08-03T10:53:08;1.85;;;1.30;;
61471;SDS011;47337;54.068;12.114;2022-08-03T11:01:05;2.65;;;1.70;;
61471;SDS011;47337;54.068;12.114;2022-08-03T11:03:32;2.67;;;1.70;;
61471;SDS011;47337;54.068;12.114;2022-08-03T11:06:19;1.85;;;1.55;;
61471;SDS011;47337;54.068;12.114;2022-08-03T11:08:48;3.72;;;1.90;;
61471;SDS011;47337;54.068;12.114;2022-08-03T11:11:35;4.10;;;1.90;;
61471;SDS011;47337;54.068;12.114;2022-08-03T11:16:39;4.07;;;1.77;;
61471;SDS011;47337;54.068;12.114;2022-08-03T11:19:08;4.20;;;1.70;;
61471;SDS011;47337;54.068;12.114;2022-08-03T11:27:28;1.90;;;1.63;;
61471;SDS011;47337;54.068;12.114;2022-08-03T11:37:33;3.00;;;1.60;;
61471;SDS011;47337;54.068;12.114;2022-08-03T11:39:59;4.97;;;1.60;;
61471;SDS011;47337;54.068;12.114;2022-08-03T11:44:57;3.30;;;1.63;;
61471;SDS011;47337;54.068;12.114;2022-08-03T11:47:24;3.08;;;1.60;;
61471;SDS011;47337;54.068;12.114;2022-08-03T11:49:54;3.67;;;1.92;;
61471;SDS011;47337;54.068;12.114;2022-08-03T11:52:23;3.13;;;1.70;;
61471;SDS011;47337;54.068;12.114;2022-08-03T11:54:51;3.42;;;1.70;;
61471;SDS011;47337;54.068;12.114;2022-08-03T11:57:30;4.72;;;1.70;;
61471;SDS011;47337;54.068;12.114;2022-08-03T11:59:58;2.20;;;1.42;;
61471;SDS011;47337;54.068;12.114;2022-08-03T12:02:24;4.55;;;1.80;;
61471;SDS011;47337;54.068;12.114;2022-08-03T12:07:17;2.47;;;1.55;;
61471;SDS011;47337;54.068;12.114;2022-08-03T12:10:03;2.35;;;1.60;;
61471;SDS011;47337;54.068;12.114;2022-08-03T12:12:30;3.92;;;1.63;;
61471;SDS011;47337;54.068;12.114;2022-08-03T12:14:55;4.13;;;1.67;;
61471;SDS011;47337;54.068;12.114;2022-08-03T12:17:22;3.53;;;1.92;;
61471;SDS011;47337;54.068;12.114;2022-08-03T12:19:47;2.10;;;1.40;;
61471;SDS011;47337;54.068;12.114;2022-08-03T12:22:17;2.58;;;1.40;;
61471;SDS011;47337;54.068;12.114;2022-08-03T12:25:01;2.20;;;1.40;;
61471;SDS011;47337;54.068;12.114;2022-08-03T12:27:30;3.75;;;1.67;;
61471;SDS011;47337;54.068;12.114;2022-08-03T12:29:56;2.85;;;1.70;;
61471;SDS011;47337;54.068;12.114;2022-08-03T12:32:28;5.75;;;1.60;;
61471;SDS011;47337;54.068;12.114;2022-08-03T12:34:55;4.75;;;1.50;;
61471;SDS011;47337;54.068;12.114;2022-08-03T12:37:25;6.32;;;1.35;;
61471;SDS011;47337;54.068;12.114;2022-08-03T12:39:52;4.32;;;1.52;;
61471;SDS011;47337;54.068;12.114;2022-08-03T12:42:19;3.00;;;1.67;;
61471;SDS011;47337;54.068;12.114;2022-08-03T12:44:45;3.67;;;1.45;;
61471;SDS011;47337;54.068;12.114;2022-08-03T12:47:13;3.80;;;1.58;;
61471;SDS011;47337;54.068;12.114;2022-08-03T12:49:46;3.38;;;1.30;;
61471;SDS011;47337;54.068;12.114;2022-08-03T12:52:13;6.20;;;1.30;;
61471;SDS011;47337;54.068;12.114;2022-08-03T12:54:38;3.83;;;1.50;;
61471;SDS011;47337;54.068;12.114;2022-08-03T12:57:11;3.10;;;1.45;;
61471;SDS011;47337;54.068;12.114;2022-08-03T12:59:41;5.70;;;1.55;;
61471;SDS011;47337;54.068;12.114;2022-08-03T13:02:17;2.67;;;1.50;;
61471;SDS011;47337;54.068;12.114;2022-08-03T13:04:45;4.53;;;1.55;;
61471;SDS011;47337;54.068;12.114;2022-08-03T13:07:11;2.60;;;1.42;;
61471;SDS011;47337;54.068;12.114;2022-08-03T13:12:13;2.08;;;1.38;;
61471;SDS011;47337;54.068;12.114;2022-08-03T13:14:41;4.95;;;1.50;;
61471;SDS011;47337;54.068;12.114;2022-08-03T13:17:07;3.28;;;1.20;;
61471;SDS011;47337;54.068;12.114;2022-08-03T13:19:35;3.95;;;1.30;;
61471;SDS011;47337;54.068;12.114;2022-08-03T13:22:14;4.07;;;1.52;;
61471;SDS011;47337;54.068;12.114;2022-08-03T13:24:41;4.10;;;1.30;;
61471;SDS011;47337;54.068;12.114;2022-08-03T13:27:08;7.22;;;1.33;;
61471;SDS011;47337;54.068;12.114;2022-08-03T13:29:34;3.72;;;1.40;;
61471;SDS011;47337;54.068;12.114;2022-08-03T13:32:02;5.28;;;1.40;;
61471;SDS011;47337;54.068;12.114;2022-08-03T13:34:30;1.20;;;1.10;;
61471;SDS011;47337;54.068;12.114;2022-08-03T13:36:56;3.50;;;1.20;;
61471;SDS011;47337;54.068;12.114;2022-08-03T13:39:23;2.78;;;1.33;;
61471;SDS011;47337;54.068;12.114;2022-08-03T13:41:49;3.05;;;1.02;;
61471;SDS011;47337;54.068;12.114;2022-08-03T13:44:17;3.08;;;1.38;;
61471;SDS011;47337;54.068;12.114;2022-08-03T13:46:43;2.60;;;1.15;;
61471;SDS011;47337;54.068;12.114;2022-08-03T13:49:11;5.07;;;1.50;;
61471;SDS011;47337;54.068;12.114;2022-08-03T13:51:37;4.38;;;1.30;;
61471;SDS011;47337;54.068;12.114;2022-08-03T13:54:02;1.75;;;1.00;;
61471;SDS011;47337;54.068;12.114;2022-08-03T13:56:28;4.45;;;1.10;;
61471;SDS011;47337;54.068;12.114;2022-08-03T13:58:55;5.40;;;1.20;;
61471;SDS011;47337;54.068;12.114;2022-08-03T14:01:21;2.40;;;1.38;;
61471;SDS011;47337;54.068;12.114;2022-08-03T14:03:47;4.78;;;1.42;;
61471;SDS011;47337;54.068;12.114;2022-08-03T14:06:16;5.13;;;1.25;;
61471;SDS011;47337;54.068;12.114;2022-08-03T14:08:42;2.80;;;1.50;;
61471;SDS011;47337;54.068;12.114;2022-08-03T14:11:07;3.95;;;1.45;;
61471;SDS011;47337;54.068;12.114;2022-08-03T14:13:33;3.42;;;1.33;;
61471;SDS011;47337;54.068;12.114;2022-08-03T14:15:58;2.88;;;1.30;;
61471;SDS011;47337;54.068;12.114;2022-08-03T14:18:23;2.97;;;1.10;;
61471;SDS011;47337;54.068;12.114;2022-08-03T14:20:49;4.28;;;1.70;;
61471;SDS011;47337;54.068;12.114;2022-08-03T14:23:14;2.60;;;1.30;;
61471;SDS011;47337;54.068;12.114;2022-08-03T14:25:44;2.90;;;1.63;;
61471;SDS011;47337;54.068;12.114;2022-08-03T14:28:10;2.97;;;1.35;;
61471;SDS011;47337;54.068;12.114;2022-08-03T14:30:36;2.28;;;1.20;;
61471;SDS011;47337;54.068;12.114;2022-08-03T14:33:01;5.15;;;1.10;;
61471;SDS011;47337;54.068;12.114;2022-08-03T14:35:27;1.88;;;1.30;;
61471;SDS011;47337;54.068;12.114;2022-08-03T14:37:52;1.70;;;1.60;;
61471;SDS011;47337;54.068;12.114;2022-08-03T14:40:18;1.92;;;1.30;;
61471;SDS011;47337;54.068;12.114;2022-08-03T14:42:47;2.90;;;1.48;;
61471;SDS011;47337;54.068;12.114;2022-08-03T14:45:12;3.08;;;1.45;;
61471;SDS011;47337;54.068;12.114;2022-08-03T14:47:38;2.55;;;0.95;;
61471;SDS011;47337;54.068;12.114;2022-08-03T14:50:04;4.47;;;1.25;;
61471;SDS011;47337;54.068;12.114;2022-08-03T14:52:31;3.78;;;1.40;;
61471;SDS011;47337;54.068;12.114;2022-08-03T14:54:57;3.28;;;1.20;;
61471;SDS011;47337;54.068;12.114;2022-08-03T14:57:23;2.55;;;1.77;;
61471;SDS011;47337;54.068;12.114;2022-08-03T14:59:48;3.20;;;1.50;;
61471;SDS011;47337;54.068;12.114;2022-08-03T15:02:13;4.05;;;1.50;;
61471;SDS011;47337;54.068;12.114;2022-08-03T15:04:39;5.28;;;1.83;;
61471;SDS011;47337;54.068;12.114;2022-08-03T15:07:04;4.55;;;1.92;;
61471;SDS011;47337;54.068;12.114;2022-08-03T15:09:31;4.32;;;1.85;;
61471;SDS011;47337;54.068;12.114;2022-08-03T15:11:59;3.05;;;1.80;;
61471;SDS011;47337;54.068;12.114;2022-08-03T15:14:24;4.18;;;1.65;;
61471;SDS011;47337;54.068;12.114;2022-08-03T15:16:52;3.88;;;1.98;;
61471;SDS011;47337;54.068;12.114;2022-08-03T15:19:17;4.38;;;1.67;;
61471;SDS011;47337;54.068;12.114;2022-08-03T15:21:45;2.30;;;1.80;;
61471;SDS011;47337;54.068;12.114;2022-08-03T15:24:13;3.78;;;1.60;;
61471;SDS011;47337;54.068;12.114;2022-08-03T15:26:38;3.13;;;1.73;;
61471;SDS011;47337;54.068;12.114;2022-08-03T15:29:04;5.15;;;2.00;;
61471;SDS011;47337;54.068;12.114;2022-08-03T15:31:29;2.55;;;1.52;;
61471;SDS011;47337;54.068;12.114;2022-08-03T15:33:55;3.92;;;1.50;;
61471;SDS011;47337;54.068;12.114;2022-08-03T15:36:20;3.53;;;1.40;;